• Join FlightAware (Why Join?)
  • Login
  • US Flag 
09:37PM EDT


 

Airport Tracker/Info


-or-


 

Live Flight TrackerFlight Track Log ✈ N926MC ✈ 27-Feb-2012 ✈ KLAS - KVNY

Flight Track Log - Related Links

Times and Time Zones

All times are in EST time to prevent confusion due to time zone crossing. See the N926MC flight status page for this flight to view local times or setup timezone preferences in your user account.

Time Position Orientation Groundspeed Altitude Reporting Facility
EST Latitude Longitude Course Direction KTS MPH feet Rate Location/Type
02:32PM 36.0664 -115.1783 199° South 185 213 3,600  Level Los Angeles Center
02:33PM 36.0414 -115.1889 223° Southwest 203 234 5,500 2,280 Climbing Los Angeles Center
02:34PM 35.9919 -115.2461 216° Southwest 264 304 7,100 1,560 Climbing Los Angeles Center
02:35PM 35.9192 -115.3108 182° South 267 307 9,200 1,860 Climbing Los Angeles Center
02:36PM 35.8381 -115.3142 176° South 285 328 11,900 2,340 Climbing Los Angeles Center
02:37PM 35.7650 -115.3072 177° South 280 322 14,500 2,520 Climbing Los Angeles Center
02:38PM 35.6897 -115.3031 219° Southwest 275 316 17,000 2,640 Climbing Los Angeles Center
02:39PM 35.6275 -115.3650 226° Southwest 261 300 19,800 2,460 Climbing Los Angeles Center
02:40PM 35.5694 -115.4394 229° Southwest 282 325 22,000 1,080 Climbing Los Angeles Center
02:41PM 35.5075 -115.5267 227° Southwest 313 360 22,000  Level Los Angeles Center
02:42PM 35.4389 -115.6164 227° Southwest 342 394 22,000  Level Los Angeles Center
02:43PM 35.3767 -115.6983 228° Southwest 347 399 22,000  Level Los Angeles Center
02:44PM 35.3144 -115.7828 227° Southwest 341 392 22,000  Level Los Angeles Center
02:45PM 35.2436 -115.8772 227° Southwest 341 392 22,000  Level Los Angeles Center
02:46PM 35.1792 -115.9611 228° Southwest 341 392 22,000  Level Los Angeles Center
02:47PM 35.1167 -116.0450 228° Southwest 341 392 22,000 -60 Level Los Angeles Center
02:48PM 35.0561 -116.1264 227° Southwest 341 392 21,900  Descending Los Angeles Center
02:49PM 34.9914 -116.2100 228° Southwest 341 392 22,000  Climbing Los Angeles Center
02:50PM 34.9392 -116.2808 229° Southwest 341 392 22,000  Level Los Angeles Center
02:51PM 34.8722 -116.3744 261° West 341 392 22,000  Level Los Angeles Center
02:52PM 34.8572 -116.4958 259° West 341 392 22,000  Level Los Angeles Center
02:53PM 34.8381 -116.6122 263° West 352 405 22,000  Level Los Angeles Center
02:54PM 34.8250 -116.7361 260° West 364 419 22,000  Level Los Angeles Center
02:55PM 34.8075 -116.8550 260° West 364 419 22,000  Level Los Angeles Center
02:56PM 34.7881 -116.9889 261° West 369 425 22,000  Level Los Angeles Center
02:57PM 34.7725 -117.1125 261° West 369 425 22,000 -900 Level Los Angeles Center
02:58PM 34.7567 -117.2311 259° West 369 425 20,300 -1,980 Descending Los Angeles Center
02:59PM 34.7389 -117.3422 260° West 358 412 18,100 -2,100 Descending Los Angeles Center
03:00PM 34.7231 -117.4556 259° West 352 405 16,100 -1,860 Descending Los Angeles Center
03:01PM 34.7075 -117.5564 260° West 352 405 14,400 -1,860 Descending Los Angeles Center
03:02PM 34.6914 -117.6675 260° West 347 399 12,400 -1,200 Descending Los Angeles Center
03:03PM 34.6756 -117.7731 260° West 341 392 12,000 -180 Descending Los Angeles Center
03:04PM 34.6592 -117.8864 260° West 335 386 12,100 -420 Climbing Los Angeles Center
03:05PM 34.6431 -118.0022 258° West 335 386 11,200 -1,020 Descending Los Angeles Center
03:06PM 34.6267 -118.0978 255° West 311 358 10,100 -1,200 Descending Los Angeles Center
03:07PM 34.6064 -118.1883 254° West 292 336 8,900 -1,080 Descending Los Angeles Center
03:08PM 34.5864 -118.2708 255° West 271 312 8,000 -480 Descending Los Angeles Center
03:09PM 34.5681 -118.3536 255° West 259 298 8,000  Level Los Angeles Center
03:10PM 34.5497 -118.4392 234° Southwest 259 298 8,000 -360 Level Los Angeles Center
03:11PM 34.5197 -118.4886 209° Southwest 251 289 7,300 -1,020 Descending Los Angeles Center
03:12PM 34.4625 -118.5272 168° South 233 268 6,000 -1,200 Descending Los Angeles Center
03:13PM 34.4064 -118.5131 169° South 191 220 4,900 -660 Descending Los Angeles Center
03:14PM 34.3500 -118.5000 180° South 182 209 4,800 -900 Descending Southern California TRACON
03:15PM 34.3167 -118.5000 180° South 147 169 3,300 -1,200 Descending Southern California TRACON
03:16PM 34.2667 -118.5000 180° South 142 163 2,500 -960 Descending Southern California TRACON
03:17PM 34.2333 -118.5000 180° South 129 148 1,400 -1,140 Descending Southern California TRACON